Main page
METAR-TAF:

METAR-TAF

Airports :

Larestan International Airport

Lar, Iran

latitude: 27-40-26N, longitude: 054-22-53E, elevation: 792 m

Current weather observation

The report was made 1 hour and 10 minutes ago, at 02:00 UTC
Calm wind
Temperature 25°C
Humidity 26%
Pressure 1004 hPa
Visibility 10 km or more
no clouds below 1500 m and no cumulonimbus

METAR: OISL 240200Z 00000KT CAVOK 25/04 Q1004

Time: 07:40 (03:10 UTC)

Forecast

The report was made 4 hours and 10 minutes ago, at 23:00 UTC
Forecast valid from 24 at 00 UTC to 25 at 06 UTC
Wind 6 kt from the West
Visibility: 7000 m
Temporary
from 24 at 09 UTC to 24 at 15 UTC
Wind 10 kt from the West/Southwest

TAF: OISL 232300Z 2400/2506 28003MPS 7000 NSC TEMPO 2409/2415 25005MPS

Weather observations and forecasts of more than 4000 airports (METAR and TAF reports).

The available stations are represented by yellow and red dots on the map.

Hover mouse over dot to see the name of the station.

Then click to see weather observations and forecasts.

To change the map : click on the green buttons with a black cross to zoom in, on the green button with a dash to zoom out, or on the green arrows for adjacent maps.


METAR-TAF: